Time;durP1;ratioP1;P1;durP2;ratioP2;P2;SDS_P1;SDS_P2;PMS_P1;PMS_P2;Temp;Humidity;BMP_temperature;BMP_pressure;BME280_temperature;BME280_humidity;BME280_pressure;Samples;Min_cycle;Max_cycle;Signal;HPM_P1;HPM_P2
2022/05/15 00:14:44;;;;;;;6.43;1.80;;;;;;;11.32;77.04;100510.55;713745;1174;115635;-73
2022/05/15 00:29:46;;;;;;;2.80;1.45;;;;;;;11.19;77.43;100497.67;714239;1174;114999;-73
2022/05/15 00:44:49;;;;;;;6.18;1.70;;;;;;;10.95;78.12;100509.34;713970;1174;114994;-74
2022/05/15 00:59:52;;;;;;;8.20;2.13;;;;;;;10.75;79.07;100513.65;714236;1174;115320;-74
2022/05/15 01:14:55;;;;;;;5.45;2.08;;;;;;;10.65;79.65;100499.67;713308;1174;114015;-74
2022/05/15 01:29:57;;;;;;;6.40;2.10;;;;;;;10.40;81.47;100499.13;713489;1174;113928;-74
2022/05/15 01:44:59;;;;;;;7.35;1.95;;;;;;;10.27;81.85;100516.81;713473;1174;115546;-74
2022/05/15 02:00:04;;;;;;;8.17;2.63;;;;;;;10.12;83.73;100516.27;713493;1174;114746;-75
2022/05/15 02:15:08;;;;;;;8.93;2.00;;;;;;;10.02;84.67;100518.83;713973;1174;114949;-74
2022/05/15 02:30:11;;;;;;;3.03;1.97;;;;;;;9.90;84.80;100523.28;713599;1174;114009;-75
2022/05/15 02:45:14;;;;;;;7.05;1.80;;;;;;;9.81;85.55;100527.47;713220;1174;114707;-74
2022/05/15 03:00:18;;;;;;;6.37;1.83;;;;;;;9.68;85.16;100533.84;713791;1173;115088;-76
2022/05/15 03:15:21;;;;;;;6.10;2.30;;;;;;;9.60;85.83;100542.31;713538;1174;114715;-74
2022/05/15 03:30:23;;;;;;;4.75;2.15;;;;;;;9.64;87.11;100568.13;713343;1174;115264;-74
2022/05/15 03:45:27;;;;;;;3.50;1.93;;;;;;;9.88;87.50;100582.02;713143;1174;115001;-74
2022/05/15 04:00:29;;;;;;;4.70;1.53;;;;;;;10.01;87.35;100594.97;713453;1174;113861;-74
2022/05/15 04:15:33;;;;;;;7.00;2.05;;;;;;;10.11;89.04;100599.34;713869;1174;115369;-75
2022/05/15 04:30:36;;;;;;;4.23;1.90;;;;;;;10.59;87.97;100603.32;713707;1174;114020;-74
2022/05/15 04:45:38;;;;;;;4.50;2.10;;;;;;;11.02;87.71;100617.27;714096;1174;113906;-78
2022/05/15 05:00:43;;;;;;;4.78;1.90;;;;;;;11.28;87.22;100629.96;714118;1174;114255;-78
2022/05/15 05:15:45;;;;;;;9.70;5.23;;;;;;;11.77;86.26;100644.12;714024;1174;115454;-79
2022/05/15 05:30:48;;;;;;;5.30;2.35;;;;;;;12.01;85.05;100650.84;713651;1174;114588;-78
2022/05/15 05:45:51;;;;;;;4.80;2.45;;;;;;;12.13;84.19;100655.01;713661;1173;115376;-78
2022/05/15 06:00:53;;;;;;;8.28;2.50;;;;;;;12.64;83.31;100660.99;714257;1174;114911;-77
2022/05/15 06:15:56;;;;;;;6.80;2.33;;;;;;;13.04;81.39;100674.09;713668;1174;115504;-77
2022/05/15 06:30:58;;;;;;;6.07;1.90;;;;;;;13.48;81.47;100679.69;713908;1174;115819;-78
2022/05/15 06:46:01;;;;;;;4.95;2.20;;;;;;;13.74;79.65;100687.77;714025;1174;114265;-78
2022/05/15 07:01:03;;;;;;;5.75;2.10;;;;;;;14.62;78.16;100696.91;716308;1174;114223;-78
2022/05/15 07:16:08;;;;;;;3.73;1.67;;;;;;;15.35;75.42;100708.20;714313;1174;115534;-75
2022/05/15 07:31:11;;;;;;;8.23;2.13;;;;;;;15.98;73.17;100714.97;714100;1174;115486;-77
2022/05/15 07:46:13;;;;;;;6.48;1.75;;;;;;;17.05;70.57;100723.11;714132;1174;115361;-83
2022/05/15 08:01:15;;;;;;;5.73;2.03;;;;;;;17.53;67.88;100717.05;714018;1174;114739;-80
2022/05/15 08:16:18;;;;;;;7.83;2.90;;;;;;;18.19;64.99;100738.05;713509;1174;114097;-77
2022/05/15 08:31:24;;;;;;;4.33;1.40;;;;;;;18.55;63.26;100756.89;713890;1174;114150;-79
2022/05/15 08:46:32;;;;;;;3.25;1.13;;;;;;;18.60;60.99;100761.69;713909;1174;115011;-82
2022/05/15 09:01:36;;;;;;;2.28;1.10;;;;;;;19.69;59.64;100753.44;713659;1173;114259;-78
2022/05/15 09:16:53;;;;;;;6.60;1.30;;;;;;;20.60;57.75;100770.90;713838;1174;114058;-80
2022/05/15 09:31:55;;;;;;;6.90;2.53;;;;;;;20.65;55.87;100763.16;718671;1174;115528;-79
2022/05/15 09:47:01;;;;;;;2.90;1.20;;;;;;;21.87;54.41;100763.91;717528;1174;114899;-74
2022/05/15 10:02:05;;;;;;;3.60;1.33;;;;;;;21.01;51.64;100766.80;713675;1174;114987;-77
2022/05/15 10:17:10;;;;;;;3.68;1.45;;;;;;;21.76;51.80;100767.97;713730;1174;114103;-77
2022/05/15 10:32:31;;;;;;;2.98;1.00;;;;;;;21.67;49.87;100747.80;713847;1174;114704;-78
2022/05/15 10:47:50;;;;;;;2.20;1.10;;;;;;;21.94;49.08;100753.25;713670;1174;114793;-76
2022/05/15 11:03:09;;;;;;;2.80;0.90;;;;;;;23.53;48.65;100753.67;714562;1174;115708;-80
2022/05/15 11:18:23;;;;;;;4.20;1.20;;;;;;;23.64;46.08;100756.73;713771;1174;114825;-72
2022/05/15 11:33:48;;;;;;;1.88;0.95;;;;;;;23.45;44.45;100743.16;714105;1174;115258;-72
2022/05/15 11:48:54;;;;;;;2.05;0.80;;;;;;;24.88;45.06;100745.80;714431;1174;114364;-73
2022/05/15 12:03:59;;;;;;;1.37;0.77;;;;;;;24.90;43.82;100743.70;714128;1173;114837;-74
2022/05/15 12:19:24;;;;;;;4.73;1.20;;;;;;;24.15;45.02;100730.98;713798;1174;115598;-74
2022/05/15 12:34:37;;;;;;;3.00;0.93;;;;;;;23.93;44.83;100720.59;713316;1174;115011;-72
2022/05/15 12:49:42;;;;;;;3.58;1.13;;;;;;;24.05;45.16;100705.48;713193;1174;115483;-72
2022/05/15 13:04:54;;;;;;;1.40;0.63;;;;;;;24.12;45.39;100716.16;713781;1174;115639;-75
2022/05/15 13:19:57;;;;;;;7.13;1.60;;;;;;;24.23;44.25;100701.25;713365;1174;114861;-74
2022/05/15 13:34:59;;;;;;;2.38;1.00;;;;;;;24.29;43.69;100695.03;713722;1174;114255;-73
2022/05/15 13:50:02;;;;;;;2.33;1.10;;;;;;;24.40;43.38;100688.98;713502;1174;115568;-73
2022/05/15 14:05:04;;;;;;;3.15;1.40;;;;;;;25.06;44.14;100677.92;713418;1174;115757;-72
2022/05/15 14:20:10;;;;;;;4.33;1.70;;;;;;;25.58;42.69;100672.23;713592;1174;115866;-73
2022/05/15 14:35:13;;;;;;;2.07;0.90;;;;;;;25.58;43.65;100675.72;713761;1174;115638;-72
2022/05/15 14:50:17;;;;;;;1.83;0.78;;;;;;;25.73;43.78;100644.96;713317;1174;115734;-72
2022/05/15 15:05:19;;;;;;;1.65;0.95;;;;;;;25.38;43.20;100650.99;713782;1174;114607;-74
2022/05/15 15:20:22;;;;;;;5.63;3.37;;;;;;;24.09;44.73;100652.29;713984;1174;115541;-73
2022/05/15 15:35:24;;;;;;;4.33;1.45;;;;;;;24.56;45.14;100646.57;714176;1174;115661;-75
2022/05/15 15:50:29;;;;;;;13.30;4.33;;;;;;;23.91;44.19;100653.01;713704;1174;116003;-75
2022/05/15 16:05:32;;;;;;;5.80;2.63;;;;;;;23.14;44.63;100659.05;713689;1174;115213;-74
2022/05/15 16:20:44;;;;;;;3.03;2.53;;;;;;;23.37;45.39;100650.56;713869;1174;115316;-89
2022/05/15 16:35:50;;;;;;;5.77;2.47;;;;;;;22.67;45.91;100656.39;713757;1173;115422;-79
2022/05/15 16:50:53;;;;;;;5.33;1.80;;;;;;;22.73;49.60;100660.92;713403;1173;114900;-75
2022/05/15 17:05:57;;;;;;;4.38;1.38;;;;;;;22.20;50.23;100676.91;716523;1174;114225;-94
2022/05/15 17:21:00;;;;;;;4.73;1.78;;;;;;;21.44;51.17;100690.16;716174;1174;114155;-74
2022/05/15 17:36:03;;;;;;;7.00;3.00;;;;;;;20.60;52.16;100707.78;713934;1174;115394;-77
2022/05/15 17:51:05;;;;;;;5.20;2.60;;;;;;;19.95;52.97;100715.72;713686;1173;114334;-78
2022/05/15 18:06:09;;;;;;;5.88;2.23;;;;;;;19.43;53.77;100716.64;713292;1174;115600;-73
2022/05/15 18:21:12;;;;;;;8.30;4.30;;;;;;;18.94;54.52;100732.05;713467;1174;115332;-72
2022/05/15 18:36:18;;;;;;;9.18;3.88;;;;;;;18.39;55.92;100755.17;713526;1174;115324;-72
2022/05/15 19:06:46;;;;;;;29.08;9.55;;;;;;;17.27;57.62;100803.75;713394;1174;115711;-79
2022/05/15 19:21:49;;;;;;;57.18;14.60;;;;;;;16.75;58.54;100826.06;713705;1174;114677;-79
